createdAt,value
2023-02-15T00:00:11.604Z,64.33
2023-02-15T00:02:39.751Z,67.57
2023-02-15T00:05:08.056Z,64.43
2023-02-15T00:07:35.208Z,64.80
2023-02-15T00:10:02.662Z,64.77
2023-02-15T00:12:30.151Z,63.60
2023-02-15T00:14:57.550Z,63.47
2023-02-15T00:17:24.717Z,62.00
2023-02-15T00:19:52.110Z,64.20
2023-02-15T00:22:19.744Z,63.13
2023-02-15T00:24:47.188Z,62.30
2023-02-15T00:27:14.661Z,62.07
2023-02-15T00:29:42.127Z,65.27
2023-02-15T00:32:09.157Z,66.23
2023-02-15T00:34:36.624Z,66.77
2023-02-15T00:37:04.137Z,68.80
2023-02-15T00:39:31.209Z,69.97
2023-02-15T00:41:59.760Z,69.50
2023-02-15T00:44:27.283Z,70.47
2023-02-15T00:46:57.534Z,74.03
2023-02-15T00:49:24.691Z,75.70
2023-02-15T00:51:52.142Z,69.23
2023-02-15T00:54:19.446Z,65.37
2023-02-15T00:56:46.922Z,65.23
2023-02-15T00:59:14.369Z,62.90
2023-02-15T01:01:41.910Z,63.43
2023-02-15T01:04:09.422Z,62.73
2023-02-15T01:06:37.200Z,64.83
2023-02-15T01:09:04.502Z,60.97
2023-02-15T01:11:31.918Z,63.00
2023-02-15T01:13:59.778Z,63.90
2023-02-15T01:16:29.696Z,63.20
2023-02-15T01:18:57.687Z,61.20
2023-02-15T01:21:27.115Z,61.47
2023-02-15T01:23:54.725Z,61.20
2023-02-15T01:26:21.847Z,64.53
2023-02-15T01:28:49.216Z,61.57
2023-02-15T01:31:21.053Z,62.10
2023-02-15T01:33:49.016Z,60.93
2023-02-15T01:36:18.342Z,60.13
2023-02-15T01:38:45.804Z,62.40
2023-02-15T01:41:24.341Z,61.30
2023-02-15T01:43:55.301Z,64.23
2023-02-15T01:46:47.156Z,62.33
2023-02-15T01:49:20.728Z,64.07
2023-02-15T01:51:50.205Z,62.67
2023-02-15T01:54:34.974Z,60.80
2023-02-15T01:57:10.890Z,60.60
2023-02-15T01:59:41.109Z,63.13
2023-02-15T02:02:10.887Z,61.00
2023-02-15T02:04:52.592Z,61.23
2023-02-15T02:07:25.350Z,63.53
2023-02-15T02:09:52.784Z,62.03
2023-02-15T02:12:26.242Z,61.77
2023-02-15T02:14:54.971Z,62.43
2023-02-15T02:17:45.248Z,62.07
2023-02-15T02:20:18.143Z,61.33
2023-02-15T02:23:12.067Z,61.70
2023-02-15T02:26:22.581Z,62.07
2023-02-15T02:29:08.529Z,65.30
2023-02-15T02:32:05.496Z,74.30
2023-02-15T02:34:47.131Z,71.53
2023-02-15T02:37:24.180Z,73.17
2023-02-15T02:40:28.951Z,68.07
2023-02-15T02:43:37.015Z,63.77
2023-02-15T02:46:21.563Z,65.37
2023-02-15T02:48:50.425Z,61.53
2023-02-15T02:51:22.402Z,65.03
2023-02-15T02:53:57.836Z,63.73
2023-02-15T02:56:47.392Z,61.23
2023-02-15T02:59:26.735Z,64.50
2023-02-15T03:02:05.805Z,61.73
2023-02-15T03:04:38.077Z,62.67
2023-02-15T03:07:13.752Z,63.97
2023-02-15T03:09:46.974Z,62.73
2023-02-15T03:12:22.329Z,63.07
2023-02-15T03:15:04.106Z,61.80
2023-02-15T03:17:37.715Z,62.57
2023-02-15T03:20:15.366Z,61.33
2023-02-15T03:23:14.986Z,63.93
2023-02-15T03:25:47.951Z,61.07
2023-02-15T03:28:26.302Z,62.93
2023-02-15T03:30:57.240Z,60.30
2023-02-15T03:33:27.675Z,60.67
2023-02-15T03:36:20.073Z,60.37
2023-02-15T03:39:09.077Z,60.37
2023-02-15T03:42:09.292Z,61.30
2023-02-15T03:45:00.176Z,62.47
2023-02-15T03:47:35.808Z,62.93
2023-02-15T03:50:39.984Z,59.90
2023-02-15T03:53:10.951Z,58.83
2023-02-15T03:55:38.562Z,61.23
2023-02-15T03:58:24.427Z,59.53
2023-02-15T04:01:22.563Z,59.37
2023-02-15T04:03:52.288Z,59.77
2023-02-15T04:06:19.785Z,60.77
2023-02-15T04:09:05.676Z,58.07
2023-02-15T04:11:33.095Z,59.67
2023-02-15T04:14:20.451Z,58.70
2023-02-15T04:16:47.565Z,55.63
2023-02-15T04:19:32.892Z,57.20
2023-02-15T04:22:18.709Z,57.40
2023-02-15T04:25:04.023Z,57.50
2023-02-15T04:27:31.422Z,54.67
2023-02-15T04:29:58.499Z,55.23
2023-02-15T04:32:25.984Z,56.03
2023-02-15T04:34:53.406Z,56.50
2023-02-15T04:37:20.520Z,55.67
2023-02-15T04:39:47.652Z,55.63
2023-02-15T04:42:15.074Z,55.93
2023-02-15T04:44:42.788Z,56.23
2023-02-15T04:47:09.862Z,55.03
2023-02-15T04:49:36.914Z,55.37
2023-02-15T04:52:04.126Z,55.57
2023-02-15T04:54:31.149Z,55.80
2023-02-15T04:56:58.592Z,56.30
2023-02-15T04:59:26.007Z,55.53
2023-02-15T05:01:53.526Z,56.73
2023-02-15T05:04:20.969Z,57.13
2023-02-15T05:06:48.487Z,56.17
2023-02-15T05:09:16.189Z,56.23
2023-02-15T05:11:44.073Z,55.20
2023-02-15T05:14:11.551Z,56.43
2023-02-15T05:16:40.450Z,58.00
2023-02-15T05:19:08.084Z,55.00
2023-02-15T05:21:35.591Z,57.53
2023-02-15T05:24:23.028Z,55.70
2023-02-15T05:27:12.233Z,57.67
2023-02-15T05:29:39.712Z,56.23
2023-02-15T05:32:06.946Z,55.90
2023-02-15T05:34:34.414Z,57.77
2023-02-15T05:37:01.871Z,58.87
2023-02-15T05:39:29.293Z,58.97
2023-02-15T05:41:59.213Z,55.70
2023-02-15T05:44:26.730Z,54.97
2023-02-15T05:46:54.224Z,54.83
2023-02-15T05:49:21.432Z,58.83
2023-02-15T05:51:48.837Z,59.70
2023-02-15T05:54:15.884Z,65.27
2023-02-15T05:56:43.294Z,76.13
2023-02-15T05:59:10.975Z,69.43
2023-02-15T06:01:38.406Z,62.27
2023-02-15T06:04:05.486Z,59.80
2023-02-15T06:06:32.989Z,58.33
2023-02-15T06:09:00.004Z,58.10
2023-02-15T06:11:27.463Z,59.07
2023-02-15T06:13:54.515Z,57.23
2023-02-15T06:16:22.112Z,55.53
2023-02-15T06:18:49.539Z,54.53
2023-02-15T06:21:17.162Z,56.70
2023-02-15T06:23:44.570Z,55.40
2023-02-15T06:26:12.052Z,56.87
2023-02-15T06:28:39.109Z,56.37
2023-02-15T06:31:06.596Z,56.30
2023-02-15T06:33:35.009Z,55.53
2023-02-15T06:36:02.919Z,56.63
2023-02-15T06:38:30.703Z,57.87
2023-02-15T06:40:58.272Z,56.60
2023-02-15T06:43:25.694Z,55.90
2023-02-15T06:45:52.741Z,55.70
2023-02-15T06:48:20.190Z,54.43
2023-02-15T06:50:47.228Z,56.60
2023-02-15T06:53:14.658Z,56.73
2023-02-15T06:55:42.091Z,57.47
2023-02-15T06:58:09.598Z,55.77
2023-02-15T07:00:36.742Z,57.80
2023-02-15T07:03:04.272Z,55.30
2023-02-15T07:05:35.486Z,54.63
2023-02-15T07:08:02.834Z,63.53
2023-02-15T07:10:30.226Z,61.83
2023-02-15T07:12:57.741Z,61.90
2023-02-15T07:15:25.422Z,59.97
2023-02-15T07:17:52.646Z,59.83
2023-02-15T07:20:24.754Z,65.73
2023-02-15T07:22:52.382Z,64.30
2023-02-15T07:25:19.646Z,56.90
2023-02-15T07:27:47.356Z,60.57
2023-02-15T07:30:17.678Z,65.30
2023-02-15T07:33:05.545Z,61.50
2023-02-15T07:35:33.856Z,57.10
2023-02-15T07:38:01.933Z,56.37
2023-02-15T07:40:29.363Z,59.73
2023-02-15T07:43:00.216Z,57.27
2023-02-15T07:45:28.105Z,56.90
2023-02-15T07:47:55.692Z,54.40
2023-02-15T07:50:23.579Z,60.33
2023-02-15T07:52:51.058Z,59.80
2023-02-15T07:55:19.565Z,55.87
2023-02-15T07:57:48.614Z,54.17
2023-02-15T08:00:21.161Z,53.33
2023-02-15T08:03:14.887Z,53.60
2023-02-15T08:05:44.235Z,54.87
2023-02-15T08:08:30.849Z,54.47
2023-02-15T08:11:26.580Z,57.63
2023-02-15T08:14:00.524Z,58.43
2023-02-15T08:16:29.245Z,56.93
2023-02-15T08:18:58.482Z,55.50
2023-02-15T08:21:28.945Z,54.10
2023-02-15T08:23:57.738Z,54.80
2023-02-15T08:26:25.870Z,55.93
2023-02-15T08:28:53.689Z,55.40
2023-02-15T08:31:21.467Z,53.63
2023-02-15T08:33:51.173Z,54.83
2023-02-15T08:36:25.701Z,53.60
2023-02-15T08:38:52.884Z,53.60
2023-02-15T08:41:32.504Z,54.03
2023-02-15T08:44:03.663Z,55.17
2023-02-15T08:46:35.620Z,61.73
2023-02-15T08:49:03.651Z,63.83
2023-02-15T08:51:34.787Z,55.20
2023-02-15T08:54:05.540Z,56.43
2023-02-15T08:56:39.288Z,55.77
2023-02-15T08:59:08.130Z,55.00
2023-02-15T09:01:36.242Z,55.03
2023-02-15T09:04:07.378Z,54.60
2023-02-15T09:06:34.931Z,55.83
2023-02-15T09:09:03.176Z,55.20
2023-02-15T09:11:35.214Z,54.87
2023-02-15T09:14:22.506Z,54.43
2023-02-15T09:16:51.991Z,53.90
2023-02-15T09:19:21.885Z,57.97
2023-02-15T09:21:49.817Z,58.93
2023-02-15T09:24:18.499Z,55.47
2023-02-15T09:26:49.338Z,54.47
2023-02-15T09:29:18.458Z,54.13
2023-02-15T09:31:49.934Z,54.53
2023-02-15T09:34:20.788Z,55.20
2023-02-15T09:36:48.961Z,54.87
2023-02-15T09:39:20.361Z,57.23
2023-02-15T09:41:56.035Z,55.30
2023-02-15T09:45:09.816Z,54.73
2023-02-15T09:48:12.369Z,52.97
2023-02-15T09:51:14.288Z,54.83
2023-02-15T09:54:12.270Z,56.73
2023-02-15T09:56:49.910Z,53.67
2023-02-15T09:59:34.796Z,52.70
2023-02-15T10:02:26.090Z,51.83
2023-02-15T10:05:19.921Z,54.33
2023-02-15T10:07:50.140Z,54.50
2023-02-15T10:10:53.598Z,54.00
2023-02-15T10:13:45.431Z,52.10
2023-02-15T10:16:43.047Z,53.30
2023-02-15T10:19:28.737Z,55.87
2023-02-15T10:22:07.612Z,64.07
2023-02-15T10:25:08.193Z,57.43
2023-02-15T10:27:47.277Z,54.83
2023-02-15T10:30:18.060Z,53.83
2023-02-15T10:33:22.822Z,54.10
2023-02-15T10:36:31.435Z,53.97
2023-02-15T10:39:01.567Z,53.60
2023-02-15T10:42:30.579Z,54.37
2023-02-15T10:45:13.819Z,54.77
2023-02-15T10:48:01.183Z,56.73
2023-02-15T10:50:53.968Z,54.83
2023-02-15T10:54:16.329Z,54.13
2023-02-15T10:57:19.268Z,54.80
2023-02-15T11:00:40.152Z,55.17
2023-02-15T11:03:27.870Z,55.07
2023-02-15T11:06:14.378Z,55.27
2023-02-15T11:08:57.557Z,55.63
2023-02-15T11:11:43.462Z,54.80
2023-02-15T11:14:27.867Z,55.40
2023-02-15T11:17:05.322Z,55.13
2023-02-15T11:20:09.393Z,55.27
2023-02-15T11:22:36.918Z,56.50
2023-02-15T11:25:31.539Z,57.90
2023-02-15T11:27:59.859Z,57.73
2023-02-15T11:30:54.805Z,58.83
2023-02-15T11:33:37.717Z,57.40
2023-02-15T11:36:36.273Z,59.00
2023-02-15T11:39:17.181Z,60.10
2023-02-15T11:41:54.874Z,59.33
2023-02-15T11:44:46.813Z,59.40
2023-02-15T11:47:14.965Z,60.23
2023-02-15T11:49:42.005Z,61.13
2023-02-15T11:52:17.440Z,58.57
2023-02-15T11:54:51.066Z,57.23
2023-02-15T11:57:32.896Z,57.80
2023-02-15T12:00:05.154Z,58.07
2023-02-15T12:02:38.716Z,57.67
2023-02-15T12:05:20.057Z,56.87
2023-02-15T12:07:55.912Z,58.50
2023-02-15T12:10:35.901Z,58.50
2023-02-15T12:13:20.281Z,57.90
2023-02-15T12:15:57.208Z,57.50
2023-02-15T12:18:41.392Z,59.37
2023-02-15T12:21:14.396Z,58.23
2023-02-15T12:23:51.695Z,58.30
2023-02-15T12:26:36.208Z,58.23
2023-02-15T12:29:17.426Z,60.67
2023-02-15T12:31:51.577Z,59.10
2023-02-15T12:34:32.032Z,59.07
2023-02-15T12:37:03.850Z,60.93
2023-02-15T12:39:33.199Z,58.10
2023-02-15T12:42:17.349Z,58.47
2023-02-15T12:45:00.431Z,58.47
2023-02-15T12:47:30.407Z,59.43
2023-02-15T12:50:34.668Z,61.90
2023-02-15T12:53:35.562Z,61.17
2023-02-15T12:56:06.201Z,61.83
2023-02-15T12:58:39.326Z,61.13
2023-02-15T13:01:25.471Z,60.83
2023-02-15T13:04:28.701Z,60.53
2023-02-15T13:07:03.806Z,58.50
2023-02-15T13:09:33.804Z,57.57
2023-02-15T13:12:24.820Z,58.83
2023-02-15T13:14:55.699Z,59.13
2023-02-15T13:17:30.565Z,57.43
2023-02-15T13:20:10.450Z,60.23
2023-02-15T13:22:45.626Z,61.80
2023-02-15T13:25:29.495Z,60.73
2023-02-15T13:28:03.134Z,62.07
2023-02-15T13:30:38.164Z,60.87
2023-02-15T13:33:12.043Z,62.87
2023-02-15T13:36:09.623Z,59.67
2023-02-15T13:38:45.929Z,61.63
2023-02-15T13:41:58.523Z,60.93
2023-02-15T13:44:58.474Z,58.40
2023-02-15T13:48:40.185Z,59.93
2023-02-15T13:51:28.252Z,62.20
2023-02-15T13:54:00.327Z,61.40
2023-02-15T13:56:30.509Z,64.13
2023-02-15T13:59:16.729Z,62.83
2023-02-15T14:01:53.990Z,60.93
2023-02-15T14:04:57.508Z,65.63
2023-02-15T14:07:54.383Z,62.50
2023-02-15T14:10:49.768Z,61.77
2023-02-15T14:13:50.490Z,63.87
2023-02-15T14:17:06.564Z,63.30
2023-02-15T14:19:37.506Z,63.10
2023-02-15T14:22:20.833Z,64.00
2023-02-15T14:25:20.014Z,62.73
2023-02-15T14:27:47.034Z,63.90
2023-02-15T14:30:23.972Z,63.60
2023-02-15T14:32:57.141Z,64.13
2023-02-15T14:35:28.951Z,60.57
2023-02-15T14:38:03.058Z,61.77
2023-02-15T14:41:05.044Z,64.30
2023-02-15T14:43:58.651Z,63.23
2023-02-15T14:46:38.944Z,61.90
2023-02-15T14:49:16.932Z,62.10
2023-02-15T14:51:44.350Z,60.97
2023-02-15T14:54:34.149Z,61.40
2023-02-15T14:57:04.178Z,62.07
2023-02-15T14:59:53.885Z,60.60
2023-02-15T15:02:30.538Z,61.03
2023-02-15T15:05:11.970Z,59.63
2023-02-15T15:07:43.945Z,57.23
2023-02-15T15:10:17.216Z,59.80
2023-02-15T15:13:12.320Z,59.23
2023-02-15T15:15:48.681Z,60.53
2023-02-15T15:18:47.617Z,61.60
2023-02-15T15:21:49.915Z,60.93
2023-02-15T15:24:38.655Z,59.70
2023-02-15T15:27:52.922Z,59.57
2023-02-15T15:30:20.472Z,61.33
2023-02-15T15:32:58.511Z,62.73
2023-02-15T15:36:18.531Z,61.80
2023-02-15T15:39:26.877Z,60.97
2023-02-15T15:41:57.101Z,59.00
2023-02-15T15:44:50.886Z,61.97
2023-02-15T15:47:21.068Z,60.23
2023-02-15T15:49:48.683Z,60.47
2023-02-15T15:52:21.948Z,59.20
2023-02-15T15:54:59.273Z,59.40
2023-02-15T15:57:42.796Z,60.57
2023-02-15T16:00:49.013Z,62.90
2023-02-15T16:03:36.621Z,59.07
2023-02-15T16:06:04.512Z,59.73
2023-02-15T16:08:40.066Z,59.20
2023-02-15T16:11:23.793Z,60.50
2023-02-15T16:13:51.608Z,59.20
2023-02-15T16:16:30.076Z,61.53
2023-02-15T16:19:01.399Z,59.37
2023-02-15T16:21:33.074Z,60.40
2023-02-15T16:24:28.328Z,60.83
2023-02-15T16:27:44.718Z,64.43
2023-02-15T16:30:31.791Z,60.57
2023-02-15T16:33:07.746Z,61.93
2023-02-15T16:35:40.414Z,62.17
2023-02-15T16:38:11.703Z,62.70
2023-02-15T16:40:55.041Z,60.53
2023-02-15T16:43:27.437Z,61.53
2023-02-15T16:46:13.412Z,61.07
2023-02-15T16:48:47.087Z,61.17
2023-02-15T16:51:26.876Z,61.60
2023-02-15T16:53:57.036Z,62.20
2023-02-15T16:56:28.285Z,62.73
2023-02-15T16:58:58.800Z,63.37
2023-02-15T17:01:32.074Z,63.00
2023-02-15T17:04:21.903Z,62.77
2023-02-15T17:07:17.942Z,62.53
2023-02-15T17:09:56.951Z,63.27
2023-02-15T17:12:57.258Z,61.77
2023-02-15T17:15:37.157Z,61.60
2023-02-15T17:18:14.090Z,61.60
2023-02-15T17:20:43.892Z,60.57
2023-02-15T17:23:44.058Z,60.37
2023-02-15T17:26:22.600Z,60.30
2023-02-15T17:28:59.522Z,59.27
2023-02-15T17:31:33.237Z,60.43
2023-02-15T17:34:02.102Z,59.17
2023-02-15T17:36:31.852Z,60.43
2023-02-15T17:38:58.855Z,60.40
2023-02-15T17:41:28.662Z,61.30
2023-02-15T17:43:56.085Z,61.30
2023-02-15T17:46:23.910Z,62.30
2023-02-15T17:48:54.828Z,62.50
2023-02-15T17:51:23.667Z,61.80
2023-02-15T17:54:10.177Z,60.13
2023-02-15T17:56:39.242Z,62.77
2023-02-15T17:59:11.319Z,62.33
2023-02-15T18:02:06.796Z,59.27
2023-02-15T18:04:55.727Z,61.60
2023-02-15T18:07:41.536Z,62.47
2023-02-15T18:10:38.402Z,59.17
2023-02-15T18:13:05.869Z,63.07
2023-02-15T18:15:33.378Z,61.13
2023-02-15T18:18:00.852Z,61.63
2023-02-15T18:20:38.907Z,63.40
2023-02-15T18:23:09.205Z,63.83
2023-02-15T18:25:36.644Z,64.67
2023-02-15T18:28:04.229Z,60.93
2023-02-15T18:30:32.152Z,65.07
2023-02-15T18:32:59.963Z,63.43
2023-02-15T18:35:31.439Z,63.00
2023-02-15T18:38:01.039Z,61.77
2023-02-15T18:40:29.814Z,63.80
2023-02-15T18:42:57.531Z,62.97
2023-02-15T18:45:35.901Z,61.07
2023-02-15T18:48:03.676Z,61.80
2023-02-15T18:50:35.055Z,63.20
2023-02-15T18:53:04.540Z,62.90
2023-02-15T18:55:33.063Z,66.07
2023-02-15T18:58:01.126Z,61.00
2023-02-15T19:00:33.122Z,61.77
2023-02-15T19:03:04.909Z,62.50
2023-02-15T19:05:33.735Z,61.63
2023-02-15T19:08:02.112Z,62.70
2023-02-15T19:10:32.042Z,63.23
2023-02-15T19:12:59.833Z,65.20
2023-02-15T19:15:30.548Z,64.57
2023-02-15T19:17:57.756Z,65.27
2023-02-15T19:20:36.817Z,64.17
2023-02-15T19:23:06.002Z,62.73
2023-02-15T19:25:38.078Z,61.77
2023-02-15T19:28:16.454Z,63.80
2023-02-15T19:30:44.249Z,63.33
2023-02-15T19:33:19.029Z,60.90
2023-02-15T19:35:52.499Z,61.30
2023-02-15T19:38:25.859Z,63.30
2023-02-15T19:40:53.351Z,63.07
2023-02-15T19:43:26.036Z,62.13
2023-02-15T19:45:53.961Z,62.87
2023-02-15T19:48:21.407Z,62.67
2023-02-15T19:50:48.960Z,62.47
2023-02-15T19:53:25.181Z,61.00
2023-02-15T19:55:53.047Z,61.43
2023-02-15T19:58:21.173Z,62.47
2023-02-15T20:00:50.635Z,63.43
2023-02-15T20:03:17.835Z,61.83
2023-02-15T20:05:45.722Z,63.90
2023-02-15T20:08:22.314Z,61.53
2023-02-15T20:10:49.953Z,63.30
2023-02-15T20:13:19.687Z,63.73
2023-02-15T20:15:48.053Z,62.23
2023-02-15T20:18:15.585Z,63.17
2023-02-15T20:20:48.637Z,63.23
2023-02-15T20:23:35.699Z,64.90
2023-02-15T20:26:18.323Z,64.13
2023-02-15T20:28:46.820Z,65.27
2023-02-15T20:31:20.394Z,67.30
2023-02-15T20:33:49.031Z,65.83
2023-02-15T20:36:19.025Z,68.80
2023-02-15T20:38:47.010Z,70.33
2023-02-15T20:41:35.894Z,69.73
2023-02-15T20:44:24.526Z,69.47
2023-02-15T20:46:56.114Z,69.03
2023-02-15T20:49:25.401Z,67.17
2023-02-15T20:51:54.978Z,67.17
2023-02-15T20:54:25.676Z,68.67
2023-02-15T20:56:54.464Z,71.10
2023-02-15T20:59:30.583Z,73.07
2023-02-15T21:02:04.795Z,76.87
2023-02-15T21:04:33.680Z,77.80
2023-02-15T21:07:01.402Z,80.03
2023-02-15T21:09:29.030Z,81.03
2023-02-15T21:11:59.573Z,88.07
2023-02-15T21:14:28.505Z,81.50
2023-02-15T21:16:55.964Z,86.17
2023-02-15T21:19:24.697Z,84.87
2023-02-15T21:21:53.406Z,83.93
2023-02-15T21:24:27.703Z,83.57
2023-02-15T21:26:58.779Z,81.93
2023-02-15T21:29:28.492Z,82.43
2023-02-15T21:31:58.535Z,96.00
2023-02-15T21:34:26.244Z,78.80
2023-02-15T21:36:53.748Z,78.97
2023-02-15T21:39:29.807Z,76.83
2023-02-15T21:42:16.024Z,78.43
2023-02-15T21:45:01.981Z,74.33
2023-02-15T21:47:50.210Z,76.50
2023-02-15T21:50:42.332Z,76.57
2023-02-15T21:53:34.807Z,77.10
2023-02-15T21:56:05.805Z,75.37
2023-02-15T21:58:36.869Z,74.87
2023-02-15T22:01:04.824Z,73.93
2023-02-15T22:03:37.953Z,71.63
2023-02-15T22:06:05.665Z,75.47
2023-02-15T22:08:33.447Z,75.97
2023-02-15T22:11:01.004Z,76.50
2023-02-15T22:13:33.936Z,74.10
2023-02-15T22:16:02.053Z,72.93
2023-02-15T22:18:33.944Z,74.03
2023-02-15T22:21:03.878Z,71.23
2023-02-15T22:23:31.788Z,71.27
2023-02-15T22:26:07.577Z,72.30
2023-02-15T22:28:40.551Z,70.50
2023-02-15T22:31:15.123Z,66.67
2023-02-15T22:33:44.805Z,67.60
2023-02-15T22:36:30.564Z,66.70
2023-02-15T22:38:58.495Z,70.77
2023-02-15T22:41:30.321Z,67.67
2023-02-15T22:43:58.035Z,69.93
2023-02-15T22:46:25.860Z,67.47
2023-02-15T22:48:53.363Z,70.07
2023-02-15T22:51:24.351Z,68.90
2023-02-15T22:53:53.311Z,69.20
2023-02-15T22:56:30.280Z,70.13
2023-02-15T22:59:02.469Z,67.43
2023-02-15T23:01:35.688Z,68.30
2023-02-15T23:04:04.234Z,67.27
2023-02-15T23:06:32.534Z,67.37
2023-02-15T23:09:00.856Z,69.57
2023-02-15T23:11:28.651Z,69.57
2023-02-15T23:13:56.142Z,66.73
2023-02-15T23:16:23.717Z,68.13
2023-02-15T23:18:51.349Z,69.17
2023-02-15T23:21:22.836Z,68.60
2023-02-15T23:23:57.955Z,68.63
2023-02-15T23:26:29.664Z,69.27
2023-02-15T23:28:59.770Z,68.63
2023-02-15T23:31:34.724Z,68.17
2023-02-15T23:34:12.453Z,67.97
2023-02-15T23:36:40.013Z,69.53
2023-02-15T23:39:45.464Z,67.23
2023-02-15T23:42:30.986Z,70.07
2023-02-15T23:44:58.766Z,68.50
2023-02-15T23:47:54.905Z,69.80
2023-02-15T23:50:26.600Z,69.20
2023-02-15T23:52:55.107Z,67.87
2023-02-15T23:55:23.356Z,68.20
2023-02-15T23:57:50.904Z,68.10
